Time;durP1;ratioP1;P1;durP2;ratioP2;P2;SDS_P1;SDS_P2;PMS_P1;PMS_P2;Temp;Humidity;BMP_temperature;BMP_pressure;BME280_temperature;BME280_humidity;BME280_pressure;Samples;Min_cycle;Max_cycle;Signal;HPM_P1;HPM_P2
2021/05/01 00:02:01;;;;;;;19.02;12.88;;;10.90;53.40;;;;;;5064866;28;20036;-73
2021/05/01 00:04:26;;;;;;;15.20;11.90;;;10.90;53.30;;;;;;5073231;28;20084;-73
2021/05/01 00:06:52;;;;;;;19.10;12.07;;;10.80;53.50;;;;;;5076782;28;20617;-73
2021/05/01 00:09:19;;;;;;;16.13;11.90;;;10.90;53.70;;;;;;5077039;28;20028;-72
2021/05/01 00:11:45;;;;;;;16.88;11.30;;;10.90;53.70;;;;;;5070950;28;20372;-73
2021/05/01 00:14:11;;;;;;;17.77;12.25;;;10.80;54.00;;;;;;5077785;28;20031;-73
2021/05/01 00:16:37;;;;;;;15.48;11.70;;;10.80;54.00;;;;;;5070224;28;20033;-73
2021/05/01 00:19:03;;;;;;;18.08;11.65;;;10.70;54.00;;;;;;5075988;28;20054;-73
2021/05/01 00:21:29;;;;;;;17.15;12.80;;;10.70;53.90;;;;;;5078011;28;20024;-73
2021/05/01 00:23:54;;;;;;;20.27;13.20;;;10.70;54.10;;;;;;5077220;28;20072;-73
2021/05/01 00:26:20;;;;;;;16.42;11.55;;;10.60;54.10;;;;;;5065461;28;20036;-73
2021/05/01 00:28:47;;;;;;;17.23;12.90;;;10.50;54.30;;;;;;5066866;28;20021;-73
2021/05/01 00:31:13;;;;;;;17.05;13.18;;;10.50;54.50;;;;;;5077373;28;20024;-73
2021/05/01 00:33:39;;;;;;;16.73;13.15;;;10.50;54.60;;;;;;5080724;28;20025;-73
2021/05/01 00:36:06;;;;;;;18.30;12.85;;;10.40;54.40;;;;;;5073633;28;20048;-73
2021/05/01 00:38:32;;;;;;;19.38;12.40;;;10.40;54.70;;;;;;5074115;28;20560;-72
2021/05/01 00:40:59;;;;;;;16.88;13.13;;;10.40;54.70;;;;;;5079213;28;20029;-72
2021/05/01 00:43:26;;;;;;;18.27;12.43;;;10.40;54.60;;;;;;5076204;28;20102;-72
2021/05/01 00:45:52;;;;;;;16.60;12.63;;;10.30;54.70;;;;;;5077438;28;20020;-73
2021/05/01 00:48:18;;;;;;;18.25;11.57;;;10.30;55.10;;;;;;5077184;28;20019;-73
2021/05/01 00:50:44;;;;;;;16.38;11.75;;;10.30;55.20;;;;;;5075523;28;20025;-74
2021/05/01 00:53:11;;;;;;;17.67;12.45;;;10.30;55.20;;;;;;5076673;28;20078;-73
2021/05/01 00:55:38;;;;;;;19.73;12.98;;;10.20;55.10;;;;;;5077190;28;20024;-73
2021/05/01 00:58:04;;;;;;;17.73;13.20;;;10.20;55.20;;;;;;5067965;28;20078;-74
2021/05/01 01:03:03;;;;;;;18.52;13.88;;;10.00;55.40;;;;;;5074862;28;20462;-73
2021/05/01 01:05:29;;;;;;;18.63;13.10;;;10.00;55.60;;;;;;5074732;28;20103;-73
2021/05/01 01:07:55;;;;;;;19.48;13.15;;;9.90;55.40;;;;;;5077003;28;20126;-73
2021/05/01 01:10:21;;;;;;;19.92;14.10;;;9.80;55.50;;;;;;5077126;28;20033;-72
2021/05/01 01:12:47;;;;;;;18.60;13.15;;;9.80;56.50;;;;;;5072590;28;20104;-72
2021/05/01 01:15:27;;;;;;;17.05;13.23;;;9.70;56.10;;;;;;5077118;28;20049;-72
2021/05/01 01:17:53;;;;;;;17.15;13.25;;;9.60;56.20;;;;;;5074126;28;20025;-73
2021/05/01 01:20:20;;;;;;;18.33;13.18;;;9.70;56.50;;;;;;5075460;28;20032;-72
2021/05/01 01:22:46;;;;;;;18.35;12.73;;;9.60;56.40;;;;;;5087014;28;20478;-73
2021/05/01 01:25:13;;;;;;;17.20;12.50;;;9.60;56.50;;;;;;5078242;28;20429;-73
2021/05/01 01:27:39;;;;;;;16.23;12.38;;;9.50;56.90;;;;;;5065090;28;20025;-75
2021/05/01 01:30:07;;;;;;;20.20;12.82;;;9.50;56.80;;;;;;5075267;28;20384;-73
2021/05/01 01:32:33;;;;;;;18.65;11.73;;;9.50;57.20;;;;;;5077088;28;20021;-73
2021/05/01 01:34:59;;;;;;;21.38;14.23;;;9.50;57.20;;;;;;5068342;28;20028;-73
2021/05/01 01:37:24;;;;;;;18.40;14.45;;;9.30;57.10;;;;;;5076581;28;20040;-73
2021/05/01 01:39:50;;;;;;;17.33;11.50;;;9.30;57.50;;;;;;5076512;28;20021;-72
2021/05/01 01:42:16;;;;;;;19.67;12.63;;;9.30;57.70;;;;;;5084791;28;20024;-73
2021/05/01 01:44:42;;;;;;;20.02;14.18;;;9.30;57.70;;;;;;5069519;28;20033;-73
2021/05/01 01:47:08;;;;;;;19.10;13.88;;;9.20;57.90;;;;;;5077102;28;20506;-72
2021/05/01 01:49:35;;;;;;;17.27;12.55;;;9.20;58.00;;;;;;5076747;28;20051;-72
2021/05/01 01:52:01;;;;;;;16.80;12.00;;;9.20;58.20;;;;;;5069401;28;20025;-72
2021/05/01 01:54:27;;;;;;;19.08;13.25;;;9.20;58.20;;;;;;5067741;28;20028;-72
2021/05/01 01:56:52;;;;;;;18.38;13.73;;;9.30;58.20;;;;;;5075819;28;20048;-72
2021/05/01 01:59:18;;;;;;;17.35;12.60;;;9.30;58.00;;;;;;5076768;28;20502;-72
2021/05/01 02:01:44;;;;;;;17.13;11.88;;;9.30;57.70;;;;;;5075290;28;20062;-72
2021/05/01 02:04:10;;;;;;;17.58;12.48;;;9.20;57.70;;;;;;5072915;28;20024;-72
2021/05/01 02:06:35;;;;;;;17.52;12.23;;;9.10;58.00;;;;;;5079839;28;20028;-72
2021/05/01 02:09:01;;;;;;;15.60;11.57;;;9.00;57.70;;;;;;5081784;28;20094;-72
2021/05/01 02:11:27;;;;;;;15.82;12.35;;;9.00;58.20;;;;;;5079522;28;20035;-72
2021/05/01 02:13:53;;;;;;;17.42;13.13;;;9.00;58.30;;;;;;5079809;28;20115;-72
2021/05/01 02:16:19;;;;;;;15.48;10.73;;;8.90;58.10;;;;;;5080109;28;20021;-72
2021/05/01 02:18:44;;;;;;;18.42;13.48;;;8.80;58.50;;;;;;5070570;28;20480;-72
2021/05/01 02:21:10;;;;;;;18.42;12.77;;;8.90;58.70;;;;;;5075808;28;20115;-72
2021/05/01 02:23:36;;;;;;;17.10;11.63;;;8.90;58.70;;;;;;5079894;28;20429;-72
2021/05/01 02:26:02;;;;;;;19.33;13.18;;;8.90;58.80;;;;;;5080052;28;20027;-72
2021/05/01 02:28:28;;;;;;;16.42;12.07;;;9.00;58.80;;;;;;5079468;28;20161;-72
2021/05/01 02:30:54;;;;;;;16.50;11.88;;;8.90;58.60;;;;;;5076571;28;20094;-73
2021/05/01 02:33:19;;;;;;;16.27;12.18;;;8.80;58.80;;;;;;5079413;28;20115;-73
2021/05/01 02:35:45;;;;;;;18.60;13.70;;;8.80;59.00;;;;;;5079445;28;20494;-74
2021/05/01 02:38:11;;;;;;;16.13;11.52;;;8.80;59.00;;;;;;5079160;28;20048;-74
2021/05/01 02:40:37;;;;;;;16.02;11.48;;;8.80;59.20;;;;;;5071987;28;20029;-74
2021/05/01 02:43:07;;;;;;;19.05;12.60;;;8.80;59.30;;;;;;5079054;28;20025;-73
2021/05/01 02:45:34;;;;;;;16.58;11.07;;;8.80;59.30;;;;;;5083601;28;20095;-73
2021/05/01 02:48:00;;;;;;;17.80;12.10;;;8.80;59.30;;;;;;5078613;28;20024;-72
2021/05/01 02:50:25;;;;;;;17.02;10.82;;;8.80;59.40;;;;;;5078451;28;20036;-72
2021/05/01 02:52:51;;;;;;;15.18;11.25;;;8.60;59.20;;;;;;5080828;28;20031;-72
2021/05/01 02:55:18;;;;;;;14.93;10.98;;;8.50;59.20;;;;;;5067717;28;20035;-72
2021/05/01 02:57:44;;;;;;;18.25;12.10;;;8.50;59.30;;;;;;5079343;28;20031;-72
2021/05/01 03:00:16;;;;;;;15.20;11.20;;;8.50;59.50;;;;;;5078495;28;20394;-72
2021/05/01 03:02:43;;;;;;;16.02;11.77;;;8.40;59.50;;;;;;5079379;28;20039;-72
2021/05/01 03:05:10;;;;;;;14.40;11.00;;;8.30;59.60;;;;;;5078550;28;20471;-72
2021/05/01 03:07:36;;;;;;;16.48;11.15;;;8.20;59.80;;;;;;5076490;28;20032;-72
2021/05/01 03:10:08;;;;;;;16.65;12.73;;;8.30;60.10;;;;;;5071789;28;20032;-73
2021/05/01 03:12:34;;;;;;;13.73;10.03;;;8.20;59.90;;;;;;5079185;28;20028;-73
2021/05/01 03:14:59;;;;;;;15.35;11.50;;;8.30;60.30;;;;;;5078310;28;20093;-72
2021/05/01 03:17:25;;;;;;;16.15;12.00;;;8.20;60.10;;;;;;5078616;28;20029;-72
2021/05/01 03:19:51;;;;;;;16.58;12.02;;;8.10;59.90;;;;;;5069205;28;20032;-72
2021/05/01 03:22:17;;;;;;;12.10;9.93;;;8.00;60.10;;;;;;5078634;28;20023;-73
2021/05/01 03:24:43;;;;;;;16.88;12.13;;;8.10;60.40;;;;;;5074615;28;20034;-72
2021/05/01 03:27:09;;;;;;;14.77;10.68;;;8.10;60.20;;;;;;5071452;28;20022;-72
2021/05/01 03:29:35;;;;;;;14.13;10.77;;;8.00;60.40;;;;;;5071158;28;20036;-72
2021/05/01 03:32:01;;;;;;;14.07;11.00;;;8.00;60.30;;;;;;5074651;28;20470;-72
2021/05/01 03:34:27;;;;;;;18.70;13.43;;;8.00;60.40;;;;;;5067453;28;20088;-73
2021/05/01 03:36:53;;;;;;;16.50;11.77;;;7.90;60.30;;;;;;5078218;28;20454;-72
2021/05/01 03:39:19;;;;;;;18.05;12.45;;;8.00;60.50;;;;;;5073990;28;20044;-72
2021/05/01 03:41:45;;;;;;;17.90;11.85;;;8.00;60.50;;;;;;5078093;28;20498;-72
2021/05/01 03:44:11;;;;;;;17.83;12.45;;;8.00;60.40;;;;;;5071943;28;20476;-72
2021/05/01 03:46:37;;;;;;;18.17;12.38;;;7.90;60.40;;;;;;5074322;28;20497;-72
2021/05/01 03:49:03;;;;;;;19.17;12.82;;;7.90;60.20;;;;;;5082898;28;20116;-72
2021/05/01 03:51:28;;;;;;;18.45;13.05;;;7.80;60.40;;;;;;5069655;28;20092;-72
2021/05/01 03:53:54;;;;;;;16.98;13.07;;;7.80;60.60;;;;;;5077778;28;20444;-72
2021/05/01 03:56:20;;;;;;;19.02;14.15;;;7.80;60.50;;;;;;5077596;28;20056;-72
2021/05/01 03:58:46;;;;;;;23.85;14.93;;;7.70;60.50;;;;;;5072691;28;20032;-72
2021/05/01 04:01:12;;;;;;;19.70;14.32;;;7.60;60.60;;;;;;5076046;28;20029;-72
2021/05/01 04:03:37;;;;;;;21.42;13.98;;;7.50;60.60;;;;;;5078120;28;20491;-72
2021/05/01 04:06:05;;;;;;;20.50;12.73;;;7.50;61.00;;;;;;5071855;28;20069;-72
2021/05/01 04:08:32;;;;;;;18.73;13.48;;;7.50;61.40;;;;;;5064675;28;20100;-72
2021/05/01 04:10:58;;;;;;;21.27;14.15;;;7.40;61.40;;;;;;5075361;28;20035;-72
2021/05/01 04:13:24;;;;;;;18.80;12.63;;;7.40;61.60;;;;;;5077742;28;20025;-72
2021/05/01 04:15:49;;;;;;;20.38;13.75;;;7.40;61.70;;;;;;5077777;28;20112;-72
2021/05/01 04:18:15;;;;;;;20.70;14.85;;;7.40;61.80;;;;;;5071740;28;20027;-73
2021/05/01 04:20:42;;;;;;;18.35;13.60;;;7.40;61.80;;;;;;5066266;28;20065;-73
2021/05/01 04:23:08;;;;;;;22.20;14.95;;;7.30;61.90;;;;;;5077151;28;20467;-72
2021/05/01 04:25:35;;;;;;;18.52;13.63;;;7.30;62.00;;;;;;5077649;28;20479;-73
2021/05/01 04:28:01;;;;;;;20.20;13.20;;;7.30;62.00;;;;;;5074176;28;20029;-73
2021/05/01 04:30:28;;;;;;;19.15;13.75;;;7.20;62.00;;;;;;5073923;28;20056;-73
2021/05/01 04:32:53;;;;;;;21.98;13.80;;;7.20;62.20;;;;;;5076871;28;20088;-73
2021/05/01 04:35:19;;;;;;;19.70;12.88;;;7.20;62.30;;;;;;5077121;28;20435;-72
2021/05/01 04:37:45;;;;;;;17.90;13.23;;;7.10;62.00;;;;;;5075674;28;20056;-72
2021/05/01 04:40:11;;;;;;;17.90;13.05;;;7.10;63.10;;;;;;5076133;28;20024;-72
2021/05/01 04:42:45;;;;;;;19.63;12.63;;;7.10;62.70;;;;;;5077147;28;20024;-72
2021/05/01 04:45:11;;;;;;;18.20;12.85;;;7.10;62.70;;;;;;5077397;28;20028;-71
2021/05/01 04:47:37;;;;;;;18.63;13.45;;;7.00;62.60;;;;;;5075307;28;20016;-72
2021/05/01 04:50:03;;;;;;;20.13;14.82;;;7.00;62.70;;;;;;5077296;28;20059;-72
2021/05/01 04:52:31;;;;;;;19.90;14.18;;;7.00;62.90;;;;;;5074476;28;20015;-72
2021/05/01 04:55:00;;;;;;;22.00;14.02;;;7.00;63.00;;;;;;5077954;28;20078;-72
2021/05/01 04:57:25;;;;;;;20.55;15.10;;;6.90;63.10;;;;;;5082398;28;20025;-73
2021/05/01 04:59:51;;;;;;;19.50;14.50;;;7.10;63.20;;;;;;5075678;28;20028;-73
2021/05/01 05:02:17;;;;;;;19.15;13.65;;;7.10;63.20;;;;;;5071548;28;20020;-73
2021/05/01 05:04:43;;;;;;;21.40;13.88;;;7.10;63.20;;;;;;5077165;28;20021;-73
2021/05/01 05:07:08;;;;;;;22.05;14.68;;;7.10;63.30;;;;;;5076195;28;20024;-72
2021/05/01 05:09:34;;;;;;;18.45;13.05;;;7.10;63.40;;;;;;5063203;28;20033;-73
2021/05/01 05:12:00;;;;;;;19.55;14.25;;;7.10;63.30;;;;;;5077352;28;20534;-73
2021/05/01 05:14:26;;;;;;;18.80;13.77;;;7.10;63.50;;;;;;5076321;28;20494;-73
2021/05/01 05:16:51;;;;;;;20.05;13.02;;;7.10;63.50;;;;;;5076619;28;20059;-75
2021/05/01 05:19:17;;;;;;;20.50;14.20;;;7.10;63.50;;;;;;5075096;28;20028;-72
2021/05/01 05:21:43;;;;;;;17.65;12.25;;;7.00;63.60;;;;;;5075815;28;20103;-73
2021/05/01 05:24:09;;;;;;;16.52;12.65;;;7.00;63.60;;;;;;5076955;28;20126;-73
2021/05/01 05:26:35;;;;;;;19.88;12.77;;;7.00;63.80;;;;;;5073760;28;20036;-72
2021/05/01 05:29:00;;;;;;;18.35;13.68;;;6.90;63.80;;;;;;5075533;28;20020;-73
2021/05/01 05:31:26;;;;;;;20.27;13.73;;;7.00;64.20;;;;;;5080835;28;20033;-73
2021/05/01 05:33:52;;;;;;;17.70;13.23;;;7.10;64.40;;;;;;5068754;28;20009;-73
2021/05/01 05:36:17;;;;;;;22.25;14.82;;;7.10;64.20;;;;;;5081287;28;20039;-72
2021/05/01 05:38:43;;;;;;;24.08;15.13;;;7.10;64.00;;;;;;5073108;28;20041;-72
2021/05/01 05:41:09;;;;;;;18.00;13.00;;;7.10;63.90;;;;;;5072504;28;20043;-72
2021/05/01 05:43:35;;;;;;;16.60;12.90;;;7.00;63.70;;;;;;5078630;28;20090;-72
2021/05/01 05:46:12;;;;;;;19.33;13.93;;;7.00;63.90;;;;;;5079853;28;20028;-72
2021/05/01 05:48:39;;;;;;;18.15;12.23;;;7.00;64.00;;;;;;5079008;28;20131;-73
2021/05/01 05:51:05;;;;;;;18.00;13.65;;;7.00;64.10;;;;;;5080434;28;20032;-73
2021/05/01 05:53:31;;;;;;;22.23;14.73;;;6.90;64.30;;;;;;5080135;28;20031;-73
2021/05/01 05:55:57;;;;;;;17.83;13.48;;;7.00;64.50;;;;;;5078387;28;20033;-73
2021/05/01 05:58:23;;;;;;;20.70;14.20;;;7.00;64.50;;;;;;5079516;28;20024;-72
2021/05/01 06:00:49;;;;;;;17.33;12.23;;;7.00;64.50;;;;;;5078038;28;20104;-72
2021/05/01 06:03:16;;;;;;;18.80;13.30;;;7.00;64.70;;;;;;5080534;28;20012;-73
2021/05/01 06:05:48;;;;;;;18.30;12.85;;;7.10;64.90;;;;;;5078223;28;20020;-73
2021/05/01 06:08:15;;;;;;;17.48;13.05;;;7.10;64.80;;;;;;5065811;28;20104;-73
2021/05/01 06:10:44;;;;;;;19.70;14.38;;;7.20;65.00;;;;;;5079552;28;20063;-73
2021/05/01 06:13:11;;;;;;;22.38;15.73;;;7.20;64.90;;;;;;5080202;28;20108;-72
2021/05/01 06:15:39;;;;;;;18.73;14.02;;;7.20;64.90;;;;;;5086606;28;20035;-72
2021/05/01 06:18:06;;;;;;;23.77;15.38;;;7.20;65.00;;;;;;5079508;28;20070;-73
2021/05/01 06:20:32;;;;;;;20.13;14.23;;;7.30;65.30;;;;;;5071112;28;20041;-72
2021/05/01 06:23:01;;;;;;;20.88;13.82;;;7.30;65.30;;;;;;5076111;28;20028;-72
2021/05/01 06:25:28;;;;;;;19.63;14.07;;;7.40;65.30;;;;;;5076741;28;20021;-72
2021/05/01 06:27:54;;;;;;;17.00;12.63;;;7.40;65.30;;;;;;5079946;28;20494;-73
2021/05/01 06:30:21;;;;;;;19.35;13.40;;;7.50;65.60;;;;;;5077507;28;20028;-73
2021/05/01 06:32:48;;;;;;;21.27;15.02;;;7.60;65.70;;;;;;5075603;28;20029;-72
2021/05/01 06:35:14;;;;;;;22.30;15.10;;;7.60;65.70;;;;;;5079766;28;20032;-73
2021/05/01 06:37:40;;;;;;;17.02;13.23;;;7.60;65.80;;;;;;5077279;28;20044;-74
2021/05/01 06:40:14;;;;;;;21.65;15.27;;;7.70;66.10;;;;;;5073270;28;20029;-74
2021/05/01 06:42:46;;;;;;;26.83;16.75;;;7.80;66.50;;;;;;5071544;28;20394;-73
2021/05/01 06:45:17;;;;;;;24.08;17.13;;;8.00;66.50;;;;;;5072264;28;20028;-73
2021/05/01 06:47:56;;;;;;;21.17;16.02;;;8.20;66.60;;;;;;5078379;28;20020;-72
2021/05/01 06:50:24;;;;;;;20.95;15.48;;;8.30;66.80;;;;;;5078115;28;20040;-73
2021/05/01 06:52:50;;;;;;;18.25;13.90;;;8.50;66.80;;;;;;5072489;28;20023;-71
2021/05/01 06:55:18;;;;;;;16.02;12.32;;;8.60;67.60;;;;;;5077974;28;20036;-70
2021/05/01 06:57:52;;;;;;;16.42;11.48;;;8.90;68.40;;;;;;5079055;28;20108;-70
2021/05/01 07:00:23;;;;;;;16.85;12.18;;;9.20;68.80;;;;;;5065004;28;20056;-71
2021/05/01 07:02:54;;;;;;;20.63;14.43;;;9.50;69.10;;;;;;5078058;28;20032;-70
2021/05/01 07:05:23;;;;;;;19.13;14.45;;;9.80;69.00;;;;;;5079124;28;20052;-70
2021/05/01 07:07:49;;;;;;;19.50;13.50;;;10.20;69.00;;;;;;5078218;28;20021;-70
2021/05/01 07:10:57;;;;;;;15.52;12.32;;;10.50;69.40;;;;;;5078766;28;20029;-70
2021/05/01 07:13:25;;;;;;;14.35;11.02;;;11.10;70.40;;;;;;5077795;28;20078;-71
2021/05/01 07:15:52;;;;;;;14.45;11.32;;;11.70;70.60;;;;;;5073370;28;20032;-70
2021/05/01 07:18:21;;;;;;;11.63;9.15;;;12.20;69.80;;;;;;5078104;28;20048;-70
2021/05/01 07:20:48;;;;;;;12.90;9.68;;;12.70;69.10;;;;;;5066078;28;20029;-71
2021/05/01 07:23:14;;;;;;;11.32;8.55;;;13.10;68.70;;;;;;5071582;28;20081;-71
2021/05/01 07:25:40;;;;;;;9.90;7.95;;;13.60;68.40;;;;;;5077175;28;20435;-71
2021/05/01 07:28:10;;;;;;;10.65;8.48;;;14.00;67.40;;;;;;5074364;28;20027;-71
2021/05/01 07:30:46;;;;;;;13.48;9.18;;;14.40;66.50;;;;;;5072589;28;20129;-70
2021/05/01 07:33:49;;;;;;;10.70;8.95;;;14.70;65.10;;;;;;5069534;28;20103;-71
2021/05/01 07:36:44;;;;;;;10.70;8.80;;;14.90;63.80;;;;;;5072220;28;20127;-71
2021/05/01 07:39:11;;;;;;;8.52;7.13;;;15.20;63.00;;;;;;5071315;28;20037;-70
2021/05/01 07:41:42;;;;;;;9.13;6.55;;;15.60;63.70;;;;;;5071831;28;20054;-71
2021/05/01 07:44:09;;;;;;;8.23;5.90;;;16.10;62.80;;;;;;5078091;28;20016;-71
2021/05/01 07:46:39;;;;;;;7.45;5.95;;;16.40;62.20;;;;;;5076056;28;20031;-70
2021/05/01 07:49:09;;;;;;;8.80;6.70;;;16.70;61.30;;;;;;5077057;28;20032;-71
2021/05/01 07:51:38;;;;;;;9.63;7.95;;;16.90;60.10;;;;;;5076343;28;20020;-71
2021/05/01 07:54:05;;;;;;;8.80;6.95;;;17.10;59.30;;;;;;5076350;28;20032;-72
2021/05/01 07:56:31;;;;;;;7.35;6.00;;;17.30;59.70;;;;;;5066907;28;20372;-70
2021/05/01 07:58:58;;;;;;;7.15;5.70;;;17.70;59.50;;;;;;5076299;28;20082;-71
2021/05/01 08:01:28;;;;;;;6.75;5.30;;;18.10;58.60;;;;;;5064136;28;20060;-72
2021/05/01 08:03:54;;;;;;;7.10;4.97;;;18.40;57.90;;;;;;5077785;28;20056;-71
2021/05/01 08:06:21;;;;;;;5.07;3.63;;;18.60;57.40;;;;;;5076769;28;20036;-71
2021/05/01 08:08:47;;;;;;;5.10;3.83;;;19.00;57.10;;;;;;5076327;28;20028;-72
2021/05/01 08:11:13;;;;;;;5.00;3.90;;;19.30;56.50;;;;;;5077000;28;20040;-72
2021/05/01 08:13:39;;;;;;;6.13;4.22;;;19.60;56.60;;;;;;5077546;28;20021;-72
2021/05/01 08:16:05;;;;;;;6.32;4.60;;;19.70;55.00;;;;;;5076884;28;20028;-72
2021/05/01 08:18:32;;;;;;;4.97;3.67;;;20.00;55.10;;;;;;5076392;28;20024;-72
2021/05/01 08:20:58;;;;;;;5.45;4.00;;;20.20;53.90;;;;;;5071884;28;20028;-71
2021/05/01 08:23:24;;;;;;;5.43;3.75;;;20.50;52.80;;;;;;5071236;28;20021;-72
2021/05/01 08:25:50;;;;;;;5.40;3.75;;;20.60;52.50;;;;;;5068001;28;20039;-72
2021/05/01 08:28:16;;;;;;;5.68;3.75;;;20.80;51.90;;;;;;5073401;28;20020;-72
2021/05/01 08:30:43;;;;;;;5.97;4.13;;;21.10;52.50;;;;;;5074187;28;20024;-74
2021/05/01 08:33:09;;;;;;;6.80;5.10;;;21.30;51.10;;;;;;5073552;28;20034;-73
2021/05/01 08:35:35;;;;;;;6.80;4.22;;;21.50;50.10;;;;;;5074859;28;20036;-72
2021/05/01 08:38:01;;;;;;;5.90;4.25;;;21.60;49.70;;;;;;5076856;28;20043;-74
2021/05/01 08:40:27;;;;;;;5.63;4.40;;;21.70;49.40;;;;;;5073167;28;20031;-73
2021/05/01 08:42:53;;;;;;;5.32;3.90;;;21.90;48.50;;;;;;5075940;28;20428;-75
2021/05/01 08:45:20;;;;;;;4.95;3.65;;;22.00;48.00;;;;;;5077118;28;20017;-74
2021/05/01 08:47:48;;;;;;;4.43;2.95;;;22.20;48.30;;;;;;5077376;28;20031;-74
2021/05/01 08:50:26;;;;;;;3.97;2.80;;;22.40;47.40;;;;;;5077435;28;20027;-77
2021/05/01 08:52:56;;;;;;;5.00;2.90;;;22.60;46.90;;;;;;5075645;28;20483;-74
2021/05/01 08:55:28;;;;;;;4.30;2.63;;;22.80;46.40;;;;;;5077315;28;20029;-76
2021/05/01 08:57:54;;;;;;;4.22;2.70;;;23.00;46.10;;;;;;5077163;28;20031;-76
2021/05/01 09:00:21;;;;;;;4.65;3.08;;;23.10;45.30;;;;;;5076746;28;20040;-74
2021/05/01 09:02:49;;;;;;;4.35;2.92;;;23.20;45.10;;;;;;5076344;28;20599;-76
2021/05/01 09:05:15;;;;;;;4.47;3.08;;;23.40;44.40;;;;;;5077474;28;20108;-75
2021/05/01 09:07:46;;;;;;;3.78;2.38;;;23.60;44.20;;;;;;5074917;28;20032;-75
2021/05/01 09:10:13;;;;;;;4.43;2.90;;;23.70;43.80;;;;;;5071512;28;20028;-74
2021/05/01 09:12:43;;;;;;;4.30;2.97;;;23.80;43.20;;;;;;5077436;28;20154;-76
2021/05/01 09:15:11;;;;;;;4.05;3.03;;;23.90;42.60;;;;;;5076983;28;20028;-78
2021/05/01 09:17:37;;;;;;;4.20;2.60;;;24.00;42.00;;;;;;5071886;28;20562;-75
2021/05/01 09:20:09;;;;;;;3.83;2.90;;;24.10;41.40;;;;;;5075380;28;20472;-74
2021/05/01 09:22:55;;;;;;;4.00;2.70;;;24.10;41.30;;;;;;5076748;28;20058;-74
2021/05/01 09:25:23;;;;;;;4.25;2.70;;;24.20;41.00;;;;;;5066269;28;20028;-74
2021/05/01 09:28:10;;;;;;;3.80;2.30;;;24.30;40.80;;;;;;5077138;28;20016;-74
2021/05/01 09:30:38;;;;;;;4.35;2.47;;;24.50;40.40;;;;;;5077001;28;20024;-74
2021/05/01 09:33:20;;;;;;;4.72;3.10;;;24.60;39.80;;;;;;5076774;28;20020;-74
2021/05/01 09:36:00;;;;;;;5.07;2.70;;;24.80;39.70;;;;;;5076647;28;20036;-74
2021/05/01 09:38:30;;;;;;;4.38;2.92;;;24.90;39.10;;;;;;5076762;28;20554;-74
2021/05/01 09:40:56;;;;;;;3.28;2.08;;;25.00;39.20;;;;;;5076503;28;20028;-75
2021/05/01 09:43:22;;;;;;;3.47;2.05;;;25.40;39.30;;;;;;5076994;28;20107;-75
2021/05/01 09:45:48;;;;;;;4.22;2.35;;;25.60;39.10;;;;;;5076645;28;20032;-75
2021/05/01 09:48:19;;;;;;;3.42;2.15;;;25.80;38.60;;;;;;5077093;28;20031;-75
2021/05/01 09:50:47;;;;;;;3.67;2.00;;;26.10;38.20;;;;;;5076390;28;20390;-75
2021/05/01 09:53:16;;;;;;;4.57;2.72;;;26.20;37.40;;;;;;5077056;28;20540;-75
2021/05/01 09:55:56;;;;;;;3.95;2.40;;;26.30;37.20;;;;;;5076505;28;20546;-75
2021/05/01 09:58:25;;;;;;;5.95;3.05;;;26.40;36.80;;;;;;5076760;28;20090;-75
2021/05/01 10:01:11;;;;;;;6.63;4.78;;;26.30;36.10;;;;;;5076569;28;20025;-71
2021/05/01 10:03:37;;;;;;;7.70;5.72;;;25.50;33.40;;;;;;5076569;28;20025;-72
2021/05/01 10:06:06;;;;;;;6.88;5.53;;;24.70;34.00;;;;;;5076480;28;20075;-71
2021/05/01 10:08:33;;;;;;;6.70;5.22;;;24.80;36.00;;;;;;5074957;28;20021;-68
2021/05/01 10:11:13;;;;;;;7.10;5.55;;;25.10;35.50;;;;;;5076665;28;20103;-69
2021/05/01 10:13:51;;;;;;;6.43;4.60;;;25.40;36.10;;;;;;5065282;28;20033;-66
2021/05/01 10:16:18;;;;;;;7.18;5.20;;;25.70;35.30;;;;;;5079084;28;20031;-67
2021/05/01 10:19:12;;;;;;;5.70;4.38;;;25.40;33.90;;;;;;5079898;28;20020;-67
2021/05/01 10:21:47;;;;;;;6.13;4.25;;;25.70;35.40;;;;;;5075614;28;20093;-68
2021/05/01 10:24:13;;;;;;;6.50;4.40;;;26.40;35.90;;;;;;5079864;28;20028;-67
2021/05/01 10:26:42;;;;;;;5.10;3.75;;;27.00;34.90;;;;;;5080067;28;20050;-66
2021/05/01 10:29:09;;;;;;;5.53;3.95;;;27.20;34.20;;;;;;5080018;28;20036;-66
2021/05/01 10:31:46;;;;;;;5.70;3.92;;;27.50;34.20;;;;;;5079923;28;20035;-65
2021/05/01 10:34:13;;;;;;;5.40;4.18;;;27.90;34.10;;;;;;5079912;28;20020;-66
2021/05/01 10:36:44;;;;;;;5.30;3.90;;;28.00;32.40;;;;;;5079162;28;20031;-66
2021/05/01 10:39:10;;;;;;;4.90;3.55;;;27.20;30.10;;;;;;5079178;28;20050;-68
2021/05/01 10:41:37;;;;;;;5.35;3.40;;;26.10;29.40;;;;;;5075776;28;20025;-68
2021/05/01 10:44:06;;;;;;;5.10;3.63;;;26.10;31.90;;;;;;5074343;28;20431;-67
2021/05/01 10:46:40;;;;;;;6.65;4.00;;;26.80;32.90;;;;;;5078381;28;20025;-68
2021/05/01 10:49:08;;;;;;;6.72;3.58;;;27.50;32.60;;;;;;5078097;28;20071;-67
2021/05/01 10:51:37;;;;;;;5.10;3.40;;;28.00;32.30;;;;;;5071200;28;20166;-68
2021/05/01 10:54:14;;;;;;;4.50;3.60;;;28.60;32.20;;;;;;5079712;28;20431;-68
2021/05/01 10:56:49;;;;;;;5.43;3.47;;;28.90;31.50;;;;;;5079033;28;20028;-68
2021/05/01 10:59:17;;;;;;;6.50;4.18;;;29.10;30.90;;;;;;5066263;28;20025;-69
2021/05/01 11:01:48;;;;;;;5.25;3.25;;;29.40;30.80;;;;;;5079333;28;20105;-69
2021/05/01 11:04:25;;;;;;;4.95;3.50;;;29.70;30.60;;;;;;5079543;28;20482;-68
2021/05/01 11:07:22;;;;;;;5.32;3.70;;;29.60;29.30;;;;;;5078726;28;20017;-69
2021/05/01 11:09:51;;;;;;;5.20;3.75;;;29.30;29.30;;;;;;5078895;28;20033;-69
2021/05/01 11:12:22;;;;;;;4.90;3.33;;;29.20;28.80;;;;;;5086925;28;20035;-70
2021/05/01 11:14:52;;;;;;;5.17;3.40;;;29.10;29.20;;;;;;5082874;28;20051;-70
2021/05/01 11:17:33;;;;;;;4.65;3.10;;;29.40;29.60;;;;;;5079206;28;20035;-70
2021/05/01 11:20:13;;;;;;;5.40;3.35;;;29.90;29.70;;;;;;5078886;28;20025;-70
2021/05/01 11:22:44;;;;;;;4.05;2.95;;;30.40;29.60;;;;;;5086214;28;20025;-69
2021/05/01 11:25:12;;;;;;;4.93;3.30;;;30.70;28.80;;;;;;5066082;28;20039;-69
2021/05/01 11:27:44;;;;;;;6.22;3.80;;;30.60;28.10;;;;;;5078489;28;20025;-70
2021/05/01 11:30:10;;;;;;;;;;;29.60;26.80;;;;;;5077921;28;20368;-69
2021/05/01 11:32:37;;;;;;;5.18;3.38;;;28.50;26.40;;;;;;5080394;28;19950;-69
2021/05/01 11:35:06;;;;;;;4.65;3.03;;;27.30;26.10;;;;;;5090355;28;20040;-69
2021/05/01 11:37:55;;;;;;;6.15;3.22;;;27.30;27.60;;;;;;5077859;28;20041;-69
2021/05/01 11:40:23;;;;;;;5.32;3.33;;;27.70;28.30;;;;;;5075945;28;20032;-69
2021/05/01 11:42:51;;;;;;;5.30;3.67;;;27.70;27.60;;;;;;5078430;28;20017;-68
2021/05/01 11:45:35;;;;;;;4.72;3.03;;;27.40;27.50;;;;;;5076971;28;20475;-69
2021/05/01 11:48:05;;;;;;;4.88;3.30;;;27.60;28.30;;;;;;5078215;28;20073;-70
2021/05/01 11:50:36;;;;;;;5.53;3.50;;;27.90;28.50;;;;;;5078169;28;20024;-70
2021/05/01 11:53:30;;;;;;;4.78;3.63;;;28.10;28.30;;;;;;5077834;28;20031;-70
2021/05/01 11:56:04;;;;;;;5.85;3.92;;;28.30;28.00;;;;;;5078203;28;21145;-70
2021/05/01 11:58:32;;;;;;;5.18;3.65;;;27.70;27.00;;;;;;5076732;28;20372;-70
2021/05/01 12:01:16;;;;;;;5.80;3.40;;;26.90;26.80;;;;;;5082587;28;20103;-70
2021/05/01 12:04:02;;;;;;;4.68;3.40;;;26.20;27.10;;;;;;5073979;28;20051;-70
2021/05/01 12:06:40;;;;;;;5.22;3.40;;;25.70;27.10;;;;;;5077575;28;20356;-70
2021/05/01 12:09:19;;;;;;;6.65;3.65;;;25.10;27.10;;;;;;5076314;28;20032;-69
2021/05/01 12:11:47;;;;;;;5.32;3.85;;;24.60;27.40;;;;;;5072643;28;20399;-70
2021/05/01 12:14:14;;;;;;;5.22;3.40;;;24.20;27.80;;;;;;5074859;28;20027;-72
2021/05/01 12:16:43;;;;;;;4.85;3.17;;;24.00;28.20;;;;;;5074673;28;20500;-72
2021/05/01 12:19:21;;;;;;;4.47;2.60;;;23.90;28.40;;;;;;5073803;28;20084;-72
2021/05/01 12:21:46;;;;;;;6.45;4.57;;;23.90;29.00;;;;;;5075669;28;20024;-72
2021/05/01 12:24:32;;;;;;;6.85;4.20;;;23.90;29.10;;;;;;5077651;28;20021;-72
2021/05/01 12:26:59;;;;;;;5.55;3.50;;;23.70;29.00;;;;;;5074667;28;20086;-71
2021/05/01 12:29:27;;;;;;;5.18;3.50;;;23.40;29.00;;;;;;5091059;28;20077;-70
2021/05/01 12:31:55;;;;;;;5.45;3.60;;;23.30;29.30;;;;;;5077444;28;20035;-72
2021/05/01 12:34:43;;;;;;;5.28;3.78;;;23.20;29.50;;;;;;5075980;28;20042;-72
2021/05/01 12:37:11;;;;;;;5.82;3.80;;;23.00;29.90;;;;;;5076401;28;20107;-73
2021/05/01 12:39:38;;;;;;;5.57;3.65;;;22.50;29.30;;;;;;5075691;28;20036;-72
2021/05/01 12:42:18;;;;;;;5.47;2.92;;;22.40;29.60;;;;;;5076811;28;20019;-72
2021/05/01 12:44:47;;;;;;;5.15;3.40;;;22.10;29.70;;;;;;5066133;28;20029;-70
2021/05/01 12:47:32;;;;;;;5.10;2.88;;;22.00;30.00;;;;;;5077480;28;20017;-71
2021/05/01 12:50:22;;;;;;;4.20;3.30;;;21.90;30.10;;;;;;5075118;28;20031;-70
2021/05/01 12:52:49;;;;;;;4.70;3.25;;;21.80;30.00;;;;;;5075532;28;20059;-70